sensor_id;sensor_type;location;lat;lon;timestamp;temperature;humidity
77613;DHT22;66777;52.282;5.960;2023-08-21T00:00:15;19.70;75.70
77613;DHT22;66777;52.282;5.960;2023-08-21T00:02:41;19.70;75.90
77613;DHT22;66777;52.282;5.960;2023-08-21T00:05:07;19.70;75.90
77613;DHT22;66777;52.282;5.960;2023-08-21T00:07:33;19.70;75.90
77613;DHT22;66777;52.282;5.960;2023-08-21T00:09:58;19.70;75.90
77613;DHT22;66777;52.282;5.960;2023-08-21T00:12:24;19.70;75.90
77613;DHT22;66777;52.282;5.960;2023-08-21T00:14:49;19.70;75.90
77613;DHT22;66777;52.282;5.960;2023-08-21T00:17:16;19.70;75.80
77613;DHT22;66777;52.282;5.960;2023-08-21T00:19:42;19.70;75.70
77613;DHT22;66777;52.282;5.960;2023-08-21T00:22:08;19.70;75.70
77613;DHT22;66777;52.282;5.960;2023-08-21T00:24:34;19.70;75.70
77613;DHT22;66777;52.282;5.960;2023-08-21T00:26:59;19.70;75.70
77613;DHT22;66777;52.282;5.960;2023-08-21T00:29:25;19.70;75.80
77613;DHT22;66777;52.282;5.960;2023-08-21T00:31:51;19.70;75.80
77613;DHT22;66777;52.282;5.960;2023-08-21T00:34:17;19.60;75.80
77613;DHT22;66777;52.282;5.960;2023-08-21T00:36:42;19.60;75.80
77613;DHT22;66777;52.282;5.960;2023-08-21T00:39:08;19.60;75.90
77613;DHT22;66777;52.282;5.960;2023-08-21T00:41:34;19.60;75.90
77613;DHT22;66777;52.282;5.960;2023-08-21T00:44:00;19.60;75.90
77613;DHT22;66777;52.282;5.960;2023-08-21T00:46:25;19.60;75.70
77613;DHT22;66777;52.282;5.960;2023-08-21T00:48:51;19.50;75.70
77613;DHT22;66777;52.282;5.960;2023-08-21T00:51:17;19.50;75.80
77613;DHT22;66777;52.282;5.960;2023-08-21T00:53:44;19.50;75.80
77613;DHT22;66777;52.282;5.960;2023-08-21T00:56:11;19.50;75.70
77613;DHT22;66777;52.282;5.960;2023-08-21T00:58:36;19.60;75.70
77613;DHT22;66777;52.282;5.960;2023-08-21T01:01:02;19.50;75.70
77613;DHT22;66777;52.282;5.960;2023-08-21T01:03:30;19.50;75.70
77613;DHT22;66777;52.282;5.960;2023-08-21T01:05:56;19.50;75.70
77613;DHT22;66777;52.282;5.960;2023-08-21T01:10:56;19.50;75.80
77613;DHT22;66777;52.282;5.960;2023-08-21T01:13:57;19.50;75.80
77613;DHT22;66777;52.282;5.960;2023-08-21T01:16:25;19.40;75.70
77613;DHT22;66777;52.282;5.960;2023-08-21T01:18:52;19.40;75.80
77613;DHT22;66777;52.282;5.960;2023-08-21T01:21:20;19.30;75.70
77613;DHT22;66777;52.282;5.960;2023-08-21T01:23:46;19.30;75.80
77613;DHT22;66777;52.282;5.960;2023-08-21T01:26:11;19.30;75.70
77613;DHT22;66777;52.282;5.960;2023-08-21T01:28:37;19.30;75.60
77613;DHT22;66777;52.282;5.960;2023-08-21T01:33:35;19.30;75.80
77613;DHT22;66777;52.282;5.960;2023-08-21T01:36:04;19.30;75.80
77613;DHT22;66777;52.282;5.960;2023-08-21T01:38:33;19.30;75.80
77613;DHT22;66777;52.282;5.960;2023-08-21T01:41:01;19.20;75.80
77613;DHT22;66777;52.282;5.960;2023-08-21T01:43:28;19.20;75.70
77613;DHT22;66777;52.282;5.960;2023-08-21T01:45:54;19.20;75.90
77613;DHT22;66777;52.282;5.960;2023-08-21T01:48:19;19.20;75.90
77613;DHT22;66777;52.282;5.960;2023-08-21T01:50:45;19.20;76.00
77613;DHT22;66777;52.282;5.960;2023-08-21T01:53:10;19.20;76.00
77613;DHT22;66777;52.282;5.960;2023-08-21T01:55:36;19.20;76.00
77613;DHT22;66777;52.282;5.960;2023-08-21T01:58:02;19.20;76.10
77613;DHT22;66777;52.282;5.960;2023-08-21T02:00:28;19.20;76.20
77613;DHT22;66777;52.282;5.960;2023-08-21T02:02:54;19.20;76.00
77613;DHT22;66777;52.282;5.960;2023-08-21T02:05:20;19.20;76.00
77613;DHT22;66777;52.282;5.960;2023-08-21T02:07:45;19.20;76.10
77613;DHT22;66777;52.282;5.960;2023-08-21T02:10:11;19.20;76.10
77613;DHT22;66777;52.282;5.960;2023-08-21T02:12:37;19.20;76.00
77613;DHT22;66777;52.282;5.960;2023-08-21T02:15:03;19.20;76.00
77613;DHT22;66777;52.282;5.960;2023-08-21T02:17:29;19.20;75.90
77613;DHT22;66777;52.282;5.960;2023-08-21T02:19:55;19.20;76.00
77613;DHT22;66777;52.282;5.960;2023-08-21T02:22:21;19.20;76.00
77613;DHT22;66777;52.282;5.960;2023-08-21T02:24:47;19.20;76.10
77613;DHT22;66777;52.282;5.960;2023-08-21T02:27:12;19.10;76.00
77613;DHT22;66777;52.282;5.960;2023-08-21T02:29:38;19.10;76.10
77613;DHT22;66777;52.282;5.960;2023-08-21T02:32:03;19.10;76.10
77613;DHT22;66777;52.282;5.960;2023-08-21T02:34:29;19.20;76.10
77613;DHT22;66777;52.282;5.960;2023-08-21T02:36:55;19.10;76.20
77613;DHT22;66777;52.282;5.960;2023-08-21T02:39:20;19.10;76.10
77613;DHT22;66777;52.282;5.960;2023-08-21T02:41:46;19.10;76.10
77613;DHT22;66777;52.282;5.960;2023-08-21T02:44:12;19.10;76.10
77613;DHT22;66777;52.282;5.960;2023-08-21T02:46:37;19.00;76.20
77613;DHT22;66777;52.282;5.960;2023-08-21T02:49:03;19.10;76.20
77613;DHT22;66777;52.282;5.960;2023-08-21T02:51:29;19.10;76.30
77613;DHT22;66777;52.282;5.960;2023-08-21T02:53:54;19.10;76.30
77613;DHT22;66777;52.282;5.960;2023-08-21T02:56:20;19.10;76.30
77613;DHT22;66777;52.282;5.960;2023-08-21T02:58:46;19.10;76.40
77613;DHT22;66777;52.282;5.960;2023-08-21T03:01:11;19.10;76.30
77613;DHT22;66777;52.282;5.960;2023-08-21T03:03:37;19.10;76.30
77613;DHT22;66777;52.282;5.960;2023-08-21T03:06:03;19.10;76.40
77613;DHT22;66777;52.282;5.960;2023-08-21T03:08:28;19.10;76.40
77613;DHT22;66777;52.282;5.960;2023-08-21T03:10:54;19.10;76.40
77613;DHT22;66777;52.282;5.960;2023-08-21T03:13:20;19.10;76.50
77613;DHT22;66777;52.282;5.960;2023-08-21T03:15:45;19.10;76.50
77613;DHT22;66777;52.282;5.960;2023-08-21T03:18:11;19.10;76.50
77613;DHT22;66777;52.282;5.960;2023-08-21T03:20:37;19.10;76.50
77613;DHT22;66777;52.282;5.960;2023-08-21T03:23:02;19.10;76.50
77613;DHT22;66777;52.282;5.960;2023-08-21T03:25:29;19.00;76.60
77613;DHT22;66777;52.282;5.960;2023-08-21T03:27:55;19.00;76.70
77613;DHT22;66777;52.282;5.960;2023-08-21T03:30:21;19.00;76.80
77613;DHT22;66777;52.282;5.960;2023-08-21T03:32:47;19.00;76.90
77613;DHT22;66777;52.282;5.960;2023-08-21T03:35:12;19.00;76.90
77613;DHT22;66777;52.282;5.960;2023-08-21T03:37:38;19.00;76.90
77613;DHT22;66777;52.282;5.960;2023-08-21T03:40:04;19.00;76.90
77613;DHT22;66777;52.282;5.960;2023-08-21T03:42:30;19.10;76.80
77613;DHT22;66777;52.282;5.960;2023-08-21T03:44:56;19.00;76.80
77613;DHT22;66777;52.282;5.960;2023-08-21T03:47:22;19.00;77.00
77613;DHT22;66777;52.282;5.960;2023-08-21T03:49:48;19.00;76.90
77613;DHT22;66777;52.282;5.960;2023-08-21T03:52:14;19.00;77.10
77613;DHT22;66777;52.282;5.960;2023-08-21T03:54:40;19.00;77.10
77613;DHT22;66777;52.282;5.960;2023-08-21T03:57:06;19.00;77.10
77613;DHT22;66777;52.282;5.960;2023-08-21T03:59:32;19.00;77.10
77613;DHT22;66777;52.282;5.960;2023-08-21T04:01:58;19.00;77.10
77613;DHT22;66777;52.282;5.960;2023-08-21T04:04:23;18.90;77.20
77613;DHT22;66777;52.282;5.960;2023-08-21T04:06:49;18.90;77.20
77613;DHT22;66777;52.282;5.960;2023-08-21T04:09:15;18.90;77.20
77613;DHT22;66777;52.282;5.960;2023-08-21T04:11:41;18.90;77.20
77613;DHT22;66777;52.282;5.960;2023-08-21T04:14:07;18.90;77.20
77613;DHT22;66777;52.282;5.960;2023-08-21T04:16:33;18.80;77.30
77613;DHT22;66777;52.282;5.960;2023-08-21T04:18:58;18.80;77.40
77613;DHT22;66777;52.282;5.960;2023-08-21T04:21:24;18.80;77.50
77613;DHT22;66777;52.282;5.960;2023-08-21T04:23:50;18.70;77.50
77613;DHT22;66777;52.282;5.960;2023-08-21T04:26:16;18.70;77.50
77613;DHT22;66777;52.282;5.960;2023-08-21T04:28:42;18.70;77.60
77613;DHT22;66777;52.282;5.960;2023-08-21T04:31:08;18.60;77.50
77613;DHT22;66777;52.282;5.960;2023-08-21T04:33:34;18.60;77.40
77613;DHT22;66777;52.282;5.960;2023-08-21T04:36:00;18.60;77.50
77613;DHT22;66777;52.282;5.960;2023-08-21T04:38:25;18.60;77.50
77613;DHT22;66777;52.282;5.960;2023-08-21T04:40:51;18.60;77.50
77613;DHT22;66777;52.282;5.960;2023-08-21T04:43:17;18.50;77.40
77613;DHT22;66777;52.282;5.960;2023-08-21T04:45:51;18.50;77.30
77613;DHT22;66777;52.282;5.960;2023-08-21T04:48:18;18.50;77.30
77613;DHT22;66777;52.282;5.960;2023-08-21T04:50:45;18.50;77.20
77613;DHT22;66777;52.282;5.960;2023-08-21T04:53:11;18.50;77.20
77613;DHT22;66777;52.282;5.960;2023-08-21T04:55:39;18.50;77.20
77613;DHT22;66777;52.282;5.960;2023-08-21T04:58:06;18.50;77.30
77613;DHT22;66777;52.282;5.960;2023-08-21T05:00:33;18.50;77.20
77613;DHT22;66777;52.282;5.960;2023-08-21T05:02:59;18.50;77.10
77613;DHT22;66777;52.282;5.960;2023-08-21T05:05:25;18.50;77.20
77613;DHT22;66777;52.282;5.960;2023-08-21T05:07:52;18.50;77.10
77613;DHT22;66777;52.282;5.960;2023-08-21T05:10:18;18.50;77.10
77613;DHT22;66777;52.282;5.960;2023-08-21T05:12:44;18.50;77.00
77613;DHT22;66777;52.282;5.960;2023-08-21T05:15:10;18.50;77.00
77613;DHT22;66777;52.282;5.960;2023-08-21T05:17:36;18.50;76.90
77613;DHT22;66777;52.282;5.960;2023-08-21T05:20:02;18.50;76.80
77613;DHT22;66777;52.282;5.960;2023-08-21T05:22:28;18.50;76.90
77613;DHT22;66777;52.282;5.960;2023-08-21T05:24:54;18.50;76.90
77613;DHT22;66777;52.282;5.960;2023-08-21T05:27:20;18.50;77.00
77613;DHT22;66777;52.282;5.960;2023-08-21T05:29:45;18.50;77.00
77613;DHT22;66777;52.282;5.960;2023-08-21T05:32:11;18.50;77.00
77613;DHT22;66777;52.282;5.960;2023-08-21T05:34:37;18.60;77.00
77613;DHT22;66777;52.282;5.960;2023-08-21T05:37:03;18.50;77.00
77613;DHT22;66777;52.282;5.960;2023-08-21T05:39:29;18.60;77.10
77613;DHT22;66777;52.282;5.960;2023-08-21T05:41:54;18.60;77.20
77613;DHT22;66777;52.282;5.960;2023-08-21T05:44:20;18.60;77.10
77613;DHT22;66777;52.282;5.960;2023-08-21T05:46:46;18.60;77.20
77613;DHT22;66777;52.282;5.960;2023-08-21T05:49:11;18.60;77.10
77613;DHT22;66777;52.282;5.960;2023-08-21T05:51:37;18.50;77.10
77613;DHT22;66777;52.282;5.960;2023-08-21T05:54:02;18.50;77.20
77613;DHT22;66777;52.282;5.960;2023-08-21T05:56:28;18.50;77.20
77613;DHT22;66777;52.282;5.960;2023-08-21T05:58:54;18.60;77.20
77613;DHT22;66777;52.282;5.960;2023-08-21T06:01:19;18.60;77.20
77613;DHT22;66777;52.282;5.960;2023-08-21T06:03:45;18.60;77.10
77613;DHT22;66777;52.282;5.960;2023-08-21T06:06:11;18.70;77.00
77613;DHT22;66777;52.282;5.960;2023-08-21T06:08:36;18.60;77.20
77613;DHT22;66777;52.282;5.960;2023-08-21T06:11:02;18.60;77.20
77613;DHT22;66777;52.282;5.960;2023-08-21T06:13:28;18.70;77.20
77613;DHT22;66777;52.282;5.960;2023-08-21T06:15:54;18.70;77.20
77613;DHT22;66777;52.282;5.960;2023-08-21T06:18:21;18.80;77.20
77613;DHT22;66777;52.282;5.960;2023-08-21T06:20:46;18.80;77.20
77613;DHT22;66777;52.282;5.960;2023-08-21T06:23:13;18.90;77.20
77613;DHT22;66777;52.282;5.960;2023-08-21T06:25:39;18.90;77.20
77613;DHT22;66777;52.282;5.960;2023-08-21T06:28:04;18.90;77.10
77613;DHT22;66777;52.282;5.960;2023-08-21T06:30:30;18.90;77.10
77613;DHT22;66777;52.282;5.960;2023-08-21T06:32:56;19.00;77.10
77613;DHT22;66777;52.282;5.960;2023-08-21T06:35:22;19.00;77.20
77613;DHT22;66777;52.282;5.960;2023-08-21T06:37:48;19.00;77.20
77613;DHT22;66777;52.282;5.960;2023-08-21T06:40:14;19.10;77.10
77613;DHT22;66777;52.282;5.960;2023-08-21T06:42:39;19.10;77.10
77613;DHT22;66777;52.282;5.960;2023-08-21T06:45:05;19.20;77.00
77613;DHT22;66777;52.282;5.960;2023-08-21T06:47:32;19.20;77.00
77613;DHT22;66777;52.282;5.960;2023-08-21T06:49:57;19.30;77.00
77613;DHT22;66777;52.282;5.960;2023-08-21T06:52:26;19.30;77.00
77613;DHT22;66777;52.282;5.960;2023-08-21T06:54:52;19.30;77.00
77613;DHT22;66777;52.282;5.960;2023-08-21T06:57:18;19.40;76.90
77613;DHT22;66777;52.282;5.960;2023-08-21T06:59:43;19.40;77.00
77613;DHT22;66777;52.282;5.960;2023-08-21T07:02:09;19.40;77.00
77613;DHT22;66777;52.282;5.960;2023-08-21T07:04:35;19.50;77.10
77613;DHT22;66777;52.282;5.960;2023-08-21T07:07:01;19.50;77.10
77613;DHT22;66777;52.282;5.960;2023-08-21T07:09:26;19.50;77.10
77613;DHT22;66777;52.282;5.960;2023-08-21T07:11:52;19.50;77.10
77613;DHT22;66777;52.282;5.960;2023-08-21T07:14:19;19.60;77.00
77613;DHT22;66777;52.282;5.960;2023-08-21T07:16:45;19.70;77.00
77613;DHT22;66777;52.282;5.960;2023-08-21T07:19:11;19.70;77.00
77613;DHT22;66777;52.282;5.960;2023-08-21T07:21:37;19.70;76.90
77613;DHT22;66777;52.282;5.960;2023-08-21T07:24:04;19.70;76.80
77613;DHT22;66777;52.282;5.960;2023-08-21T07:26:30;19.80;76.80
77613;DHT22;66777;52.282;5.960;2023-08-21T07:28:56;19.90;76.70
77613;DHT22;66777;52.282;5.960;2023-08-21T07:31:22;19.90;76.60
77613;DHT22;66777;52.282;5.960;2023-08-21T07:33:48;19.90;76.50
77613;DHT22;66777;52.282;5.960;2023-08-21T07:36:14;20.00;76.40
77613;DHT22;66777;52.282;5.960;2023-08-21T07:38:44;20.00;76.40
77613;DHT22;66777;52.282;5.960;2023-08-21T07:41:11;20.10;76.30
77613;DHT22;66777;52.282;5.960;2023-08-21T07:43:40;20.10;76.20
77613;DHT22;66777;52.282;5.960;2023-08-21T07:46:07;20.20;76.00
77613;DHT22;66777;52.282;5.960;2023-08-21T07:48:35;20.30;75.70
77613;DHT22;66777;52.282;5.960;2023-08-21T07:51:01;20.30;75.70
77613;DHT22;66777;52.282;5.960;2023-08-21T07:53:26;20.30;75.70
77613;DHT22;66777;52.282;5.960;2023-08-21T07:55:52;20.30;75.70
77613;DHT22;66777;52.282;5.960;2023-08-21T07:58:19;20.40;75.60
77613;DHT22;66777;52.282;5.960;2023-08-21T08:00:45;20.50;75.50
77613;DHT22;66777;52.282;5.960;2023-08-21T08:03:11;20.50;75.50
77613;DHT22;66777;52.282;5.960;2023-08-21T08:05:40;20.50;75.30
77613;DHT22;66777;52.282;5.960;2023-08-21T08:08:06;20.60;75.30
77613;DHT22;66777;52.282;5.960;2023-08-21T08:10:32;20.60;75.20
77613;DHT22;66777;52.282;5.960;2023-08-21T08:12:58;20.60;75.20
77613;DHT22;66777;52.282;5.960;2023-08-21T08:15:24;20.70;75.10
77613;DHT22;66777;52.282;5.960;2023-08-21T08:17:50;20.70;75.00
77613;DHT22;66777;52.282;5.960;2023-08-21T08:20:21;20.70;74.80
77613;DHT22;66777;52.282;5.960;2023-08-21T08:22:47;20.80;74.70
77613;DHT22;66777;52.282;5.960;2023-08-21T08:25:13;20.80;74.70
77613;DHT22;66777;52.282;5.960;2023-08-21T08:27:39;20.90;74.60
77613;DHT22;66777;52.282;5.960;2023-08-21T08:30:06;20.90;74.50
77613;DHT22;66777;52.282;5.960;2023-08-21T08:32:32;20.90;74.40
77613;DHT22;66777;52.282;5.960;2023-08-21T08:34:58;21.00;74.40
77613;DHT22;66777;52.282;5.960;2023-08-21T08:37:23;21.00;74.50
77613;DHT22;66777;52.282;5.960;2023-08-21T08:39:49;21.00;74.30
77613;DHT22;66777;52.282;5.960;2023-08-21T08:42:15;21.00;74.20
77613;DHT22;66777;52.282;5.960;2023-08-21T08:44:42;21.10;74.20
77613;DHT22;66777;52.282;5.960;2023-08-21T08:47:11;21.10;74.00
77613;DHT22;66777;52.282;5.960;2023-08-21T08:49:38;21.10;73.90
77613;DHT22;66777;52.282;5.960;2023-08-21T08:52:04;21.10;73.80
77613;DHT22;66777;52.282;5.960;2023-08-21T08:54:31;21.20;73.70
77613;DHT22;66777;52.282;5.960;2023-08-21T08:56:57;21.30;73.40
77613;DHT22;66777;52.282;5.960;2023-08-21T08:59:23;21.40;73.10
77613;DHT22;66777;52.282;5.960;2023-08-21T09:01:49;21.40;72.90
77613;DHT22;66777;52.282;5.960;2023-08-21T09:04:15;21.50;72.80
77613;DHT22;66777;52.282;5.960;2023-08-21T09:06:40;21.50;72.90
77613;DHT22;66777;52.282;5.960;2023-08-21T09:09:09;21.50;72.60
77613;DHT22;66777;52.282;5.960;2023-08-21T09:11:43;21.50;72.50
77613;DHT22;66777;52.282;5.960;2023-08-21T09:14:10;21.50;72.50
77613;DHT22;66777;52.282;5.960;2023-08-21T09:16:36;21.60;72.30
77613;DHT22;66777;52.282;5.960;2023-08-21T09:19:01;21.80;71.30
77613;DHT22;66777;52.282;5.960;2023-08-21T09:21:28;21.90;71.00
77613;DHT22;66777;52.282;5.960;2023-08-21T09:24:01;21.90;71.20
77613;DHT22;66777;52.282;5.960;2023-08-21T09:26:31;21.70;71.40
77613;DHT22;66777;52.282;5.960;2023-08-21T09:29:03;21.70;71.50
77613;DHT22;66777;52.282;5.960;2023-08-21T09:31:31;21.70;71.70
77613;DHT22;66777;52.282;5.960;2023-08-21T09:33:59;21.60;71.80
77613;DHT22;66777;52.282;5.960;2023-08-21T09:36:26;21.60;71.90
77613;DHT22;66777;52.282;5.960;2023-08-21T09:38:52;21.70;71.80
77613;DHT22;66777;52.282;5.960;2023-08-21T09:41:21;21.80;71.50
77613;DHT22;66777;52.282;5.960;2023-08-21T09:43:47;21.90;71.20
77613;DHT22;66777;52.282;5.960;2023-08-21T09:46:17;22.00;71.10
77613;DHT22;66777;52.282;5.960;2023-08-21T09:48:49;22.10;70.90
77613;DHT22;66777;52.282;5.960;2023-08-21T09:51:16;22.10;70.40
77613;DHT22;66777;52.282;5.960;2023-08-21T09:53:42;22.20;69.60
77613;DHT22;66777;52.282;5.960;2023-08-21T09:56:09;22.30;69.40
77613;DHT22;66777;52.282;5.960;2023-08-21T09:58:35;22.30;69.20
77613;DHT22;66777;52.282;5.960;2023-08-21T10:01:04;22.30;68.90
77613;DHT22;66777;52.282;5.960;2023-08-21T10:03:38;22.40;68.90
77613;DHT22;66777;52.282;5.960;2023-08-21T10:06:06;22.50;68.70
77613;DHT22;66777;52.282;5.960;2023-08-21T10:08:37;22.60;68.30
77613;DHT22;66777;52.282;5.960;2023-08-21T10:11:08;22.60;68.20
77613;DHT22;66777;52.282;5.960;2023-08-21T10:13:36;22.70;68.30
77613;DHT22;66777;52.282;5.960;2023-08-21T10:16:04;22.70;68.20
77613;DHT22;66777;52.282;5.960;2023-08-21T10:18:35;22.60;68.20
77613;DHT22;66777;52.282;5.960;2023-08-21T10:21:15;22.70;68.10
77613;DHT22;66777;52.282;5.960;2023-08-21T10:23:42;22.80;68.00
77613;DHT22;66777;52.282;5.960;2023-08-21T10:26:10;22.90;67.80
77613;DHT22;66777;52.282;5.960;2023-08-21T10:28:51;22.90;67.90
77613;DHT22;66777;52.282;5.960;2023-08-21T10:31:37;22.90;67.50
77613;DHT22;66777;52.282;5.960;2023-08-21T10:34:07;22.90;67.50
77613;DHT22;66777;52.282;5.960;2023-08-21T10:39:23;22.90;67.50
77613;DHT22;66777;52.282;5.960;2023-08-21T10:42:02;22.90;67.40
77613;DHT22;66777;52.282;5.960;2023-08-21T10:44:53;23.00;67.30
77613;DHT22;66777;52.282;5.960;2023-08-21T10:49:54;23.10;66.70
77613;DHT22;66777;52.282;5.960;2023-08-21T10:52:28;23.10;66.70
77613;DHT22;66777;52.282;5.960;2023-08-21T10:54:58;23.10;66.50
77613;DHT22;66777;52.282;5.960;2023-08-21T10:57:25;23.10;66.20
77613;DHT22;66777;52.282;5.960;2023-08-21T10:59:55;23.10;66.10
77613;DHT22;66777;52.282;5.960;2023-08-21T11:02:22;23.20;66.00
77613;DHT22;66777;52.282;5.960;2023-08-21T11:04:49;23.20;66.00
77613;DHT22;66777;52.282;5.960;2023-08-21T11:07:15;23.30;66.00
77613;DHT22;66777;52.282;5.960;2023-08-21T11:09:42;23.40;65.80
77613;DHT22;66777;52.282;5.960;2023-08-21T11:12:14;23.40;65.60
77613;DHT22;66777;52.282;5.960;2023-08-21T11:14:41;23.50;65.50
77613;DHT22;66777;52.282;5.960;2023-08-21T11:17:08;23.50;65.20
77613;DHT22;66777;52.282;5.960;2023-08-21T11:19:34;23.60;64.70
77613;DHT22;66777;52.282;5.960;2023-08-21T11:22:01;23.60;64.40
77613;DHT22;66777;52.282;5.960;2023-08-21T11:24:40;23.80;63.60
77613;DHT22;66777;52.282;5.960;2023-08-21T11:27:10;23.90;63.30
77613;DHT22;66777;52.282;5.960;2023-08-21T11:29:39;23.90;63.20
77613;DHT22;66777;52.282;5.960;2023-08-21T11:32:24;23.80;63.20
77613;DHT22;66777;52.282;5.960;2023-08-21T11:37:24;23.90;62.60
77613;DHT22;66777;52.282;5.960;2023-08-21T11:39:54;23.90;62.50
77613;DHT22;66777;52.282;5.960;2023-08-21T11:42:25;23.90;62.20
77613;DHT22;66777;52.282;5.960;2023-08-21T11:44:53;24.00;62.20
77613;DHT22;66777;52.282;5.960;2023-08-21T11:47:21;24.00;62.20
77613;DHT22;66777;52.282;5.960;2023-08-21T11:49:49;24.00;62.00
77613;DHT22;66777;52.282;5.960;2023-08-21T11:52:20;24.10;61.70
77613;DHT22;66777;52.282;5.960;2023-08-21T11:54:48;24.20;61.50
77613;DHT22;66777;52.282;5.960;2023-08-21T11:57:15;24.20;61.30
77613;DHT22;66777;52.282;5.960;2023-08-21T11:59:41;24.20;61.20
77613;DHT22;66777;52.282;5.960;2023-08-21T12:04:36;24.20;60.90
77613;DHT22;66777;52.282;5.960;2023-08-21T12:07:02;24.20;60.80
77613;DHT22;66777;52.282;5.960;2023-08-21T12:09:27;24.40;60.70
77613;DHT22;66777;52.282;5.960;2023-08-21T12:11:53;24.40;60.60
77613;DHT22;66777;52.282;5.960;2023-08-21T12:14:19;24.40;60.60
77613;DHT22;66777;52.282;5.960;2023-08-21T12:16:44;24.50;60.70
77613;DHT22;66777;52.282;5.960;2023-08-21T12:19:10;24.50;60.50
77613;DHT22;66777;52.282;5.960;2023-08-21T12:21:37;24.60;60.10
77613;DHT22;66777;52.282;5.960;2023-08-21T12:24:04;24.60;60.10
77613;DHT22;66777;52.282;5.960;2023-08-21T12:26:31;24.60;59.80
77613;DHT22;66777;52.282;5.960;2023-08-21T12:28:56;24.70;59.60
77613;DHT22;66777;52.282;5.960;2023-08-21T12:31:22;24.70;59.70
77613;DHT22;66777;52.282;5.960;2023-08-21T12:33:49;24.80;59.80
77613;DHT22;66777;52.282;5.960;2023-08-21T12:36:15;24.80;59.80
77613;DHT22;66777;52.282;5.960;2023-08-21T12:38:40;24.90;59.50
77613;DHT22;66777;52.282;5.960;2023-08-21T12:41:06;25.00;59.40
77613;DHT22;66777;52.282;5.960;2023-08-21T12:43:31;25.00;59.50
77613;DHT22;66777;52.282;5.960;2023-08-21T12:45:58;25.00;59.50
77613;DHT22;66777;52.282;5.960;2023-08-21T12:48:23;25.00;59.20
77613;DHT22;66777;52.282;5.960;2023-08-21T12:50:49;25.00;58.90
77613;DHT22;66777;52.282;5.960;2023-08-21T12:53:15;24.90;59.30
77613;DHT22;66777;52.282;5.960;2023-08-21T12:55:41;24.70;60.10
77613;DHT22;66777;52.282;5.960;2023-08-21T12:58:08;24.50;60.90
77613;DHT22;66777;52.282;5.960;2023-08-21T13:00:33;24.40;61.60
77613;DHT22;66777;52.282;5.960;2023-08-21T13:02:59;24.40;62.20
77613;DHT22;66777;52.282;5.960;2023-08-21T13:05:25;24.40;62.70
77613;DHT22;66777;52.282;5.960;2023-08-21T13:07:51;24.30;62.90
77613;DHT22;66777;52.282;5.960;2023-08-21T13:10:18;24.30;62.60
77613;DHT22;66777;52.282;5.960;2023-08-21T13:12:44;24.30;62.70
77613;DHT22;66777;52.282;5.960;2023-08-21T13:15:10;24.40;62.70
77613;DHT22;66777;52.282;5.960;2023-08-21T13:17:36;24.30;62.80
77613;DHT22;66777;52.282;5.960;2023-08-21T13:20:03;24.20;62.90
77613;DHT22;66777;52.282;5.960;2023-08-21T13:22:39;24.40;62.70
77613;DHT22;66777;52.282;5.960;2023-08-21T13:25:08;24.40;62.30
77613;DHT22;66777;52.282;5.960;2023-08-21T13:27:34;24.50;61.70
77613;DHT22;66777;52.282;5.960;2023-08-21T13:30:00;24.60;61.40
77613;DHT22;66777;52.282;5.960;2023-08-21T13:32:26;24.60;61.20
77613;DHT22;66777;52.282;5.960;2023-08-21T13:34:52;24.70;60.90
77613;DHT22;66777;52.282;5.960;2023-08-21T13:37:17;24.70;60.90
77613;DHT22;66777;52.282;5.960;2023-08-21T13:39:43;24.70;60.90
77613;DHT22;66777;52.282;5.960;2023-08-21T13:42:09;24.70;60.80
77613;DHT22;66777;52.282;5.960;2023-08-21T13:44:34;24.70;61.00
77613;DHT22;66777;52.282;5.960;2023-08-21T13:47:01;24.80;60.90
77613;DHT22;66777;52.282;5.960;2023-08-21T13:49:27;24.80;60.70
77613;DHT22;66777;52.282;5.960;2023-08-21T13:51:52;24.90;60.40
77613;DHT22;66777;52.282;5.960;2023-08-21T13:54:18;25.00;60.30
77613;DHT22;66777;52.282;5.960;2023-08-21T13:56:44;25.00;60.40
77613;DHT22;66777;52.282;5.960;2023-08-21T13:59:10;25.00;60.30
77613;DHT22;66777;52.282;5.960;2023-08-21T14:01:36;25.00;60.30
77613;DHT22;66777;52.282;5.960;2023-08-21T14:04:02;25.00;60.00
77613;DHT22;66777;52.282;5.960;2023-08-21T14:06:28;25.00;59.70
77613;DHT22;66777;52.282;5.960;2023-08-21T14:08:55;25.00;59.80
77613;DHT22;66777;52.282;5.960;2023-08-21T14:11:20;25.00;60.00
77613;DHT22;66777;52.282;5.960;2023-08-21T14:13:46;25.00;60.20
77613;DHT22;66777;52.282;5.960;2023-08-21T14:16:12;25.00;60.00
77613;DHT22;66777;52.282;5.960;2023-08-21T14:18:38;25.00;59.70
77613;DHT22;66777;52.282;5.960;2023-08-21T14:21:04;25.00;59.50
77613;DHT22;66777;52.282;5.960;2023-08-21T14:23:30;25.00;59.40
77613;DHT22;66777;52.282;5.960;2023-08-21T14:25:55;25.10;59.50
77613;DHT22;66777;52.282;5.960;2023-08-21T14:28:21;25.10;59.40
77613;DHT22;66777;52.282;5.960;2023-08-21T14:30:47;25.10;59.40
77613;DHT22;66777;52.282;5.960;2023-08-21T14:33:12;25.00;59.60
77613;DHT22;66777;52.282;5.960;2023-08-21T14:35:38;25.00;59.60
77613;DHT22;66777;52.282;5.960;2023-08-21T14:38:04;25.00;59.50
77613;DHT22;66777;52.282;5.960;2023-08-21T14:40:29;25.00;59.20
77613;DHT22;66777;52.282;5.960;2023-08-21T14:42:55;25.00;59.10
77613;DHT22;66777;52.282;5.960;2023-08-21T14:45:20;25.00;58.90
77613;DHT22;66777;52.282;5.960;2023-08-21T14:47:46;25.00;58.50
77613;DHT22;66777;52.282;5.960;2023-08-21T14:50:12;25.00;58.20
77613;DHT22;66777;52.282;5.960;2023-08-21T14:52:37;25.00;58.00
77613;DHT22;66777;52.282;5.960;2023-08-21T14:55:03;25.00;58.00
77613;DHT22;66777;52.282;5.960;2023-08-21T14:57:29;25.00;58.20
77613;DHT22;66777;52.282;5.960;2023-08-21T14:59:55;25.00;58.20
77613;DHT22;66777;52.282;5.960;2023-08-21T15:02:21;25.00;58.00
77613;DHT22;66777;52.282;5.960;2023-08-21T15:04:47;25.00;57.70
77613;DHT22;66777;52.282;5.960;2023-08-21T15:07:12;25.00;57.80
77613;DHT22;66777;52.282;5.960;2023-08-21T15:09:38;25.00;57.70
77613;DHT22;66777;52.282;5.960;2023-08-21T15:12:04;25.00;58.00
77613;DHT22;66777;52.282;5.960;2023-08-21T15:14:30;25.00;58.10
77613;DHT22;66777;52.282;5.960;2023-08-21T15:16:55;25.00;58.20
77613;DHT22;66777;52.282;5.960;2023-08-21T15:19:21;25.00;58.40
77613;DHT22;66777;52.282;5.960;2023-08-21T15:21:46;24.80;58.70
77613;DHT22;66777;52.282;5.960;2023-08-21T15:24:12;24.80;58.90
77613;DHT22;66777;52.282;5.960;2023-08-21T15:26:38;24.70;59.00
77613;DHT22;66777;52.282;5.960;2023-08-21T15:29:03;24.70;59.20
77613;DHT22;66777;52.282;5.960;2023-08-21T15:31:29;24.70;59.20
77613;DHT22;66777;52.282;5.960;2023-08-21T15:33:54;24.70;59.00
77613;DHT22;66777;52.282;5.960;2023-08-21T15:36:20;24.70;59.20
77613;DHT22;66777;52.282;5.960;2023-08-21T15:38:45;24.70;59.40
77613;DHT22;66777;52.282;5.960;2023-08-21T15:41:11;24.70;59.30